Time;durP1;ratioP1;P1;durP2;ratioP2;P2;SDS_P1;SDS_P2;PMS_P1;PMS_P2;Temp;Humidity;BMP_temperature;BMP_pressure;BME280_temperature;BME280_humidity;BME280_pressure;Samples;Min_cycle;Max_cycle;Signal;HPM_P1;HPM_P2
2023/08/07 00:01:14;;;;;;;5.28;2.00;;;19.10;60.60;;;;;;5112703;28;20217;-70
2023/08/07 00:07:08;;;;;;;8.43;2.00;;;19.10;60.80;;;;;;5072883;28;20251;-72
2023/08/07 00:10:10;;;;;;;6.53;1.98;;;19.00;60.70;;;;;;5112463;28;20213;-72
2023/08/07 00:15:21;;;;;;;6.32;2.28;;;19.00;60.80;;;;;;5053077;28;20219;-72
2023/08/07 00:17:58;;;;;;;5.30;2.03;;;18.90;60.80;;;;;;5053106;28;20196;-71
2023/08/07 00:21:03;;;;;;;3.83;1.90;;;19.00;61.10;;;;;;5064083;28;20209;-71
2023/08/07 00:23:32;;;;;;;6.55;2.00;;;19.00;61.10;;;;;;5067388;28;20200;-70
2023/08/07 00:26:01;;;;;;;9.10;1.90;;;19.00;61.10;;;;;;5116471;27;20213;-71
2023/08/07 00:28:46;;;;;;;9.48;2.05;;;19.00;60.90;;;;;;5127198;27;20201;-71
2023/08/07 00:31:14;;;;;;;4.05;1.48;;;19.00;60.90;;;;;;5125902;27;20224;-71
2023/08/07 00:34:10;;;;;;;;;;;;;;;;;;;;;
2023/08/07 00:39:40;;;;;;;;;;;;;;;;;;;;;
2023/08/07 00:42:25;;;;;;;6.28;2.08;;;19.00;60.90;;;;;;5115544;28;20317;-71
2023/08/07 00:44:53;;;;;;;8.35;2.10;;;19.00;61.10;;;;;;5115606;28;20232;-72
2023/08/07 00:47:33;;;;;;;;;;;;;;;;;;;;;
2023/08/07 00:50:03;;;;;;;6.32;2.00;;;19.00;61.10;;;;;;5115212;28;20224;-72
2023/08/07 00:52:32;;;;;;;4.90;1.75;;;19.10;61.20;;;;;;5115589;28;20181;-72
2023/08/07 01:01:00;;;;;;;7.00;2.05;;;19.00;61.10;;;;;;5051833;28;20290;-71
2023/08/07 01:03:28;;;;;;;6.82;2.15;;;19.00;61.10;;;;;;5052114;28;20257;-71
2023/08/07 01:05:55;;;;;;;6.82;2.08;;;19.00;61.20;;;;;;5052212;28;20298;-71
2023/08/07 01:11:27;;;;;;;4.85;1.58;;;19.00;61.30;;;;;;5046492;28;20281;-72
2023/08/07 01:34:50;;;;;;;7.32;1.90;;;18.90;61.40;;;;;;4920802;28;20606;-71
2023/08/07 01:37:30;;;;;;;8.27;2.30;;;19.00;61.50;;;;;;4971943;28;20200;-71
2023/08/07 01:40:38;;;;;;;;;;;;;;;;;;;;;
2023/08/07 01:43:06;;;;;;;5.72;1.65;;;19.00;61.50;;;;;;4985530;28;20231;-72
2023/08/07 01:45:34;;;;;;;5.05;1.75;;;19.00;61.40;;;;;;5051526;28;20216;-71
2023/08/07 01:48:03;;;;;;;5.57;1.90;;;19.00;61.40;;;;;;5076412;28;20201;-71
2023/08/07 01:57:46;;;;;;;;;;;;;;;;;;;;;
2023/08/07 02:00:14;;;;;;;4.88;1.83;;;19.00;61.30;;;;;;5114070;28;20562;-71
2023/08/07 02:02:41;;;;;;;5.30;1.48;;;19.00;61.30;;;;;;5114147;28;20603;-72
2023/08/07 02:05:11;;;;;;;5.00;1.90;;;19.00;61.30;;;;;;5114183;28;20270;-72
2023/08/07 02:14:48;;;;;;;5.68;1.90;;;19.00;61.30;;;;;;5050757;28;20268;-71
2023/08/07 02:17:22;;;;;;;4.95;2.20;;;19.00;61.30;;;;;;5051014;28;20249;-71
2023/08/07 02:19:56;;;;;;;6.72;1.92;;;19.00;61.30;;;;;;5050650;28;20277;-72
2023/08/07 02:22:27;;;;;;;7.53;1.90;;;19.00;61.30;;;;;;5099400;28;20193;-72
2023/08/07 02:24:55;;;;;;;6.68;2.00;;;19.00;61.30;;;;;;5113529;28;20302;-72
2023/08/07 02:27:22;;;;;;;5.63;1.80;;;19.00;61.30;;;;;;5113772;28;20181;-71
2023/08/07 02:29:50;;;;;;;8.98;2.00;;;19.00;61.30;;;;;;5113665;28;20213;-72
2023/08/07 02:32:21;;;;;;;4.82;2.00;;;19.00;61.30;;;;;;5113366;28;20660;-72
2023/08/07 02:34:58;;;;;;;;;;;;;;;;;;;;;
2023/08/07 02:37:38;;;;;;;;;;;;;;;;;;;;;
2023/08/07 02:40:07;;;;;;;7.90;2.28;;;19.10;61.30;;;;;;5044056;28;20217;-71
2023/08/07 02:42:35;;;;;;;6.68;1.83;;;19.00;61.10;;;;;;5113003;28;20221;-71
2023/08/07 02:45:16;;;;;;;5.60;1.88;;;19.00;61.10;;;;;;5113334;28;20262;-72
2023/08/07 02:48:39;;;;;;;;;;;;;;;;;;;;;
2023/08/07 02:57:58;;;;;;;5.32;2.15;;;18.90;60.60;;;;;;5003067;28;20197;-71
2023/08/07 03:00:59;;;;;;;;;;;;;;;;;;;;;
2023/08/07 03:03:26;;;;;;;3.85;1.92;;;18.90;60.40;;;;;;5051703;28;20204;-72
2023/08/07 03:05:54;;;;;;;4.38;1.80;;;18.90;60.40;;;;;;5112913;28;20225;-72
2023/08/07 03:08:21;;;;;;;6.68;2.15;;;18.90;60.30;;;;;;5112987;28;20192;-71
2023/08/07 03:14:25;;;;;;;4.25;1.80;;;18.90;60.20;;;;;;5069271;28;20232;-71
2023/08/07 03:23:04;;;;;;;5.65;1.63;;;18.90;60.20;;;;;;5067943;28;20209;-71
2023/08/07 03:25:32;;;;;;;6.18;1.85;;;18.90;60.10;;;;;;5069549;28;20262;-72
2023/08/07 03:27:59;;;;;;;4.35;1.70;;;18.90;60.10;;;;;;5069656;28;20203;-71
2023/08/07 03:30:38;;;;;;;;;;;;;;;;;;;;;
2023/08/07 03:33:08;;;;;;;6.13;1.80;;;18.90;60.00;;;;;;5069849;28;20194;-71
2023/08/07 03:35:45;;;;;;;;;;;;;;;;;;;;;
2023/08/07 03:41:49;;;;;;;5.97;2.10;;;18.90;59.80;;;;;;5069924;28;20227;-71
2023/08/07 03:44:20;;;;;;;7.03;1.80;;;18.80;59.60;;;;;;5079420;28;20248;-71
2023/08/07 03:47:24;;;;;;;5.43;1.90;;;18.90;59.70;;;;;;5096757;28;20221;-72
2023/08/07 03:49:54;;;;;;;13.63;2.95;;;18.80;59.50;;;;;;5096134;28;20232;-72
2023/08/07 03:52:21;;;;;;;6.53;1.92;;;18.80;59.50;;;;;;5096390;28;20240;-71
2023/08/07 03:54:49;;;;;;;7.78;2.00;;;18.80;59.40;;;;;;5095933;28;20234;-72
2023/08/07 03:57:24;;;;;;;5.50;2.05;;;18.80;59.40;;;;;;5096319;28;20197;-71
2023/08/07 03:59:54;;;;;;;5.60;2.20;;;18.80;59.40;;;;;;5096177;28;20300;-72
2023/08/07 04:05:37;;;;;;;6.53;1.70;;;18.80;59.40;;;;;;5095947;28;20210;-72
2023/08/07 04:08:24;;;;;;;8.50;1.73;;;18.80;59.30;;;;;;5092535;28;20202;-72
2023/08/07 04:11:38;;;;;;;4.05;1.55;;;18.80;59.30;;;;;;5033287;28;20244;-72
2023/08/07 04:14:05;;;;;;;6.63;2.25;;;18.80;59.30;;;;;;4946538;28;20263;-71
2023/08/07 04:16:32;;;;;;;8.07;1.70;;;18.70;59.20;;;;;;5013474;28;20217;-72
2023/08/07 04:20:08;;;;;;;4.43;1.80;;;18.70;59.20;;;;;;5013164;28;20212;-65
2023/08/07 04:26:37;;;;;;;4.50;1.77;;;18.80;59.20;;;;;;4974249;28;20776;-72
2023/08/07 04:32:46;;;;;;;;;;;;;;;;;;;;;
2023/08/07 04:38:26;;;;;;;3.67;1.73;;;18.70;59.20;;;;;;4916701;29;20201;-71
2023/08/07 04:40:54;;;;;;;5.63;1.90;;;18.70;59.10;;;;;;4951876;29;20259;-71
2023/08/07 04:43:21;;;;;;;3.70;1.60;;;18.70;59.20;;;;;;4954472;29;20231;-71
2023/08/07 04:45:50;;;;;;;5.35;2.05;;;18.70;59.20;;;;;;4954780;29;20227;-72
2023/08/07 04:48:26;;;;;;;3.72;1.83;;;18.70;59.20;;;;;;5001867;28;20246;-72
2023/08/07 04:53:52;;;;;;;4.78;1.40;;;18.70;59.20;;;;;;5029985;28;20196;-71
2023/08/07 04:56:28;;;;;;;3.55;1.95;;;18.70;59.20;;;;;;5031147;28;20231;-71
2023/08/07 04:58:55;;;;;;;4.22;1.60;;;18.70;59.20;;;;;;5032440;28;20196;-71
2023/08/07 05:01:52;;;;;;;3.35;1.75;;;18.70;59.20;;;;;;5032443;28;20213;-70
2023/08/07 05:04:37;;;;;;;5.53;1.77;;;18.70;59.20;;;;;;5055675;28;20289;-70
2023/08/07 05:09:46;;;;;;;5.60;1.98;;;18.60;59.10;;;;;;5085630;28;20190;-71
2023/08/07 05:12:16;;;;;;;3.92;1.80;;;18.70;59.20;;;;;;5095102;28;20190;-71
2023/08/07 05:14:43;;;;;;;4.25;1.83;;;18.70;59.20;;;;;;5094417;28;20257;-71
2023/08/07 05:17:11;;;;;;;4.82;2.33;;;18.60;59.10;;;;;;5094765;28;20232;-71
2023/08/07 05:19:48;;;;;;;2.78;1.75;;;18.60;59.10;;;;;;5094452;28;20717;-70
2023/08/07 05:22:16;;;;;;;3.95;1.88;;;18.60;59.10;;;;;;5096428;28;20278;-71
2023/08/07 05:24:54;;;;;;;;;;;;;;;;;;;;;
2023/08/07 05:31:07;;;;;;;;;;;;;;;;;;;;;
2023/08/07 05:33:46;;;;;;;5.97;1.80;;;18.70;59.30;;;;;;5094470;28;20201;-71
2023/08/07 05:42:26;;;;;;;5.55;1.80;;;18.70;59.60;;;;;;5032920;28;20656;-72
2023/08/07 05:48:10;;;;;;;5.80;2.30;;;18.70;59.70;;;;;;5083930;28;20665;-72
2023/08/07 05:53:41;;;;;;;3.92;1.60;;;18.60;59.60;;;;;;5080805;28;20248;-71
2023/08/07 05:56:12;;;;;;;4.90;1.90;;;18.60;59.70;;;;;;5059137;28;20233;-72
2023/08/07 05:58:43;;;;;;;4.13;1.50;;;18.60;59.70;;;;;;5093892;28;20239;-72
2023/08/07 06:01:11;;;;;;;5.32;1.98;;;18.70;59.80;;;;;;5093957;28;20219;-71
2023/08/07 06:03:38;;;;;;;11.82;2.15;;;18.70;59.80;;;;;;5094062;28;20193;-72
2023/08/07 06:06:46;;;;;;;;;;;;;;;;;;;;;
2023/08/07 06:12:48;;;;;;;4.35;1.90;;;18.60;59.80;;;;;;5093605;28;20610;-71
2023/08/07 06:15:16;;;;;;;4.13;1.80;;;18.60;59.90;;;;;;5093803;28;20229;-71
2023/08/07 06:17:44;;;;;;;6.80;1.80;;;18.60;60.00;;;;;;5093592;28;20269;-71
2023/08/07 06:20:14;;;;;;;3.35;1.70;;;18.60;60.00;;;;;;5093807;28;20217;-71
2023/08/07 06:22:42;;;;;;;6.18;2.10;;;18.70;60.10;;;;;;5093523;28;20227;-72
2023/08/07 06:25:20;;;;;;;4.95;1.95;;;18.60;60.10;;;;;;5093718;28;20224;-72
2023/08/07 06:27:55;;;;;;;5.82;2.10;;;18.70;60.20;;;;;;5074593;28;20652;-71
2023/08/07 06:36:14;;;;;;;7.72;1.95;;;18.70;60.30;;;;;;5007735;28;20355;-71
2023/08/07 06:38:41;;;;;;;4.97;1.67;;;18.70;60.30;;;;;;5088839;28;20190;-72
2023/08/07 06:41:09;;;;;;;3.72;2.00;;;18.70;60.50;;;;;;5092939;28;20218;-72
2023/08/07 06:43:38;;;;;;;4.90;1.95;;;18.70;60.60;;;;;;5105207;28;20233;-72
2023/08/07 06:49:31;;;;;;;5.18;2.13;;;18.70;60.80;;;;;;5113218;28;20639;-71
2023/08/07 06:54:42;;;;;;;6.78;2.10;;;18.70;60.80;;;;;;5111579;28;20215;-72
2023/08/07 06:57:18;;;;;;;10.13;2.60;;;18.70;61.00;;;;;;5112951;28;20493;-72
2023/08/07 07:02:32;;;;;;;5.28;1.85;;;18.70;61.20;;;;;;5111857;28;20201;-72
2023/08/07 07:05:00;;;;;;;6.15;2.05;;;18.70;61.30;;;;;;5113128;28;20242;-72
2023/08/07 07:07:28;;;;;;;8.10;1.80;;;18.80;61.50;;;;;;5113214;28;20193;-72
2023/08/07 07:09:55;;;;;;;8.18;2.20;;;18.80;61.50;;;;;;5112724;28;20185;-71
2023/08/07 07:12:43;;;;;;;8.25;2.10;;;18.80;61.60;;;;;;5113280;28;20192;-66
2023/08/07 07:21:15;;;;;;;6.32;1.90;;;18.80;61.90;;;;;;5050706;28;20206;-71
2023/08/07 07:23:57;;;;;;;;;;;;;;;;;;;;;
2023/08/07 07:32:41;;;;;;;4.45;2.20;;;18.80;62.20;;;;;;5048208;28;20327;-71
2023/08/07 07:41:18;;;;;;;8.98;2.70;;;18.80;63.40;;;;;;5017732;28;20751;-71
2023/08/07 07:43:47;;;;;;;7.20;2.00;;;18.80;62.50;;;;;;5049593;28;20227;-71
2023/08/07 07:49:26;;;;;;;4.43;1.88;;;18.90;62.60;;;;;;5017390;28;20208;-60
2023/08/07 07:51:54;;;;;;;7.70;2.13;;;18.90;62.60;;;;;;5112787;28;20213;-71
2023/08/07 07:54:24;;;;;;;8.15;2.20;;;18.90;62.70;;;;;;5112551;28;20193;-71
2023/08/07 08:03:18;;;;;;;6.72;1.85;;;18.90;62.60;;;;;;5049459;28;20171;-71
2023/08/07 08:05:46;;;;;;;5.65;2.15;;;18.90;62.50;;;;;;5049485;28;20219;-71
2023/08/07 08:08:14;;;;;;;7.13;2.05;;;18.90;62.60;;;;;;5049389;28;20199;-71
2023/08/07 08:10:42;;;;;;;5.55;2.30;;;18.90;62.50;;;;;;5049375;28;20215;-71
2023/08/07 08:13:10;;;;;;;7.15;1.80;;;18.90;62.50;;;;;;5049442;28;20270;-71
2023/08/07 08:15:58;;;;;;;10.13;2.35;;;18.90;62.80;;;;;;5049312;28;20227;-71
2023/08/07 08:22:14;;;;;;;6.05;1.98;;;18.90;62.70;;;;;;4970912;28;20226;-71
2023/08/07 08:31:42;;;;;;;5.97;1.90;;;18.90;62.70;;;;;;4894530;29;20221;-71
2023/08/07 08:34:29;;;;;;;;;;;;;;;;;;;;;
2023/08/07 08:37:05;;;;;;;7.75;2.15;;;18.80;62.60;;;;;;4902927;29;20235;-71
2023/08/07 08:43:43;;;;;;;;;;;;;;;;;;;;;
2023/08/07 08:49:29;;;;;;;8.85;2.55;;;18.80;62.70;;;;;;4981905;28;20227;-71
2023/08/07 08:52:11;;;;;;;7.25;1.92;;;18.90;63.00;;;;;;5059905;28;20228;-71
2023/08/07 08:54:39;;;;;;;7.70;2.20;;;18.90;62.90;;;;;;5092843;28;20198;-71
2023/08/07 08:57:08;;;;;;;9.18;2.60;;;18.80;62.80;;;;;;5094915;28;20234;-66
2023/08/07 08:59:35;;;;;;;8.45;2.40;;;18.90;63.00;;;;;;5095369;28;20190;-61
2023/08/07 09:02:40;;;;;;;;;;;;;;;;;;;;;
2023/08/07 09:09:02;;;;;;;7.45;1.80;;;18.80;62.90;;;;;;5012679;28;20200;-71
2023/08/07 09:20:57;;;;;;;5.47;1.73;;;18.80;63.00;;;;;;4896890;29;20263;-71
2023/08/07 09:23:28;;;;;;;5.90;1.73;;;18.80;63.00;;;;;;4934945;29;20204;-71
2023/08/07 09:38:39;;;;;;;4.22;2.05;;;18.80;62.50;;;;;;4920768;28;20370;-61
2023/08/07 09:44:24;;;;;;;5.65;1.70;;;18.80;62.50;;;;;;5007025;28;20240;-70
2023/08/07 09:47:05;;;;;;;7.38;2.22;;;18.80;62.60;;;;;;5010205;28;20695;-71
2023/08/07 09:49:34;;;;;;;5.07;1.90;;;18.80;62.20;;;;;;5011617;28;20189;-71
2023/08/07 09:52:08;;;;;;;8.55;1.80;;;18.80;62.10;;;;;;5036587;28;20312;-71
2023/08/07 09:54:51;;;;;;;6.72;2.00;;;18.80;61.80;;;;;;5051375;28;20191;-69
2023/08/07 09:57:29;;;;;;;9.52;2.20;;;18.80;61.60;;;;;;5040053;28;20314;-71
2023/08/07 10:00:19;;;;;;;9.35;1.67;;;18.80;61.80;;;;;;4986261;28;20214;-71
2023/08/07 10:02:48;;;;;;;22.70;2.78;;;18.80;61.70;;;;;;5047696;28;20203;-71
2023/08/07 10:05:30;;;;;;;;;;;;;;;;;;;;;
2023/08/07 10:10:41;;;;;;;13.77;2.35;;;18.80;61.80;;;;;;5112805;28;20722;-71
2023/08/07 10:13:09;;;;;;;5.00;1.90;;;18.80;61.60;;;;;;5114108;28;20185;-71
2023/08/07 10:15:50;;;;;;;6.03;1.88;;;18.90;61.40;;;;;;5113950;28;20213;-71
2023/08/07 10:18:26;;;;;;;6.30;1.70;;;18.80;61.10;;;;;;5114108;28;20274;-71
2023/08/07 10:20:54;;;;;;;9.35;3.00;;;18.90;61.10;;;;;;5113694;28;20782;-71
2023/08/07 10:23:22;;;;;;;8.43;2.05;;;18.80;61.00;;;;;;5115040;28;20335;-71
2023/08/07 10:35:48;;;;;;;5.18;1.80;;;18.90;60.70;;;;;;5010667;28;20207;-70
2023/08/07 10:38:16;;;;;;;4.28;1.73;;;18.90;60.40;;;;;;5040469;28;20286;-70
2023/08/07 10:41:11;;;;;;;6.10;1.70;;;18.90;60.30;;;;;;5050320;28;20938;-71
2023/08/07 10:43:40;;;;;;;7.13;1.88;;;18.90;60.20;;;;;;5050116;28;20227;-71
2023/08/07 10:46:10;;;;;;;4.50;2.05;;;18.90;60.30;;;;;;5050372;28;20226;-71
2023/08/07 10:55:32;;;;;;;7.47;1.98;;;18.90;60.50;;;;;;4965951;28;20229;-71
2023/08/07 11:01:58;;;;;;;3.67;1.85;;;18.90;60.80;;;;;;4990867;28;20821;-71
2023/08/07 11:07:51;;;;;;;10.88;2.20;;;18.90;60.20;;;;;;4976100;28;20568;-65
2023/08/07 11:13:03;;;;;;;8.00;1.60;;;18.90;61.70;;;;;;4971450;28;20195;-71
2023/08/07 11:19:20;;;;;;;5.45;2.10;;;19.00;60.90;;;;;;4914425;29;20226;-71
2023/08/07 11:21:50;;;;;;;3.38;1.70;;;19.00;61.00;;;;;;5011525;28;20315;-71
2023/08/07 11:24:20;;;;;;;5.60;1.55;;;19.00;60.80;;;;;;5029757;28;20235;-71
2023/08/07 11:26:47;;;;;;;4.45;1.67;;;19.00;60.70;;;;;;5029947;28;20307;-71
2023/08/07 11:29:38;;;;;;;5.50;1.95;;;19.00;60.50;;;;;;5029742;28;20208;-71
2023/08/07 11:32:08;;;;;;;6.78;1.80;;;19.00;60.60;;;;;;5020055;28;20264;-71
2023/08/07 11:37:56;;;;;;;2.72;1.67;;;19.00;60.80;;;;;;4967179;28;20243;-70
2023/08/07 11:43:33;;;;;;;4.68;1.77;;;19.00;60.90;;;;;;5046088;28;20228;-71
2023/08/07 11:46:02;;;;;;;10.85;2.00;;;19.00;60.90;;;;;;5092149;28;20217;-71
2023/08/07 11:54:50;;;;;;;5.25;1.75;;;19.00;60.80;;;;;;5029334;28;20861;-71
2023/08/07 11:57:18;;;;;;;8.57;1.50;;;19.00;60.30;;;;;;5029521;28;20426;-71
2023/08/07 12:00:10;;;;;;;;;;;;;;;;;;;;;
2023/08/07 12:02:47;;;;;;;2.97;1.60;;;19.10;60.10;;;;;;4967921;28;20322;-71
2023/08/07 12:05:14;;;;;;;7.78;1.50;;;19.10;60.40;;;;;;5029303;28;20193;-66
2023/08/07 12:07:48;;;;;;;7.95;1.90;;;19.10;60.00;;;;;;5032194;28;20204;-71
2023/08/07 12:10:17;;;;;;;7.15;1.70;;;19.10;60.00;;;;;;5033134;28;20200;-71
2023/08/07 12:19:05;;;;;;;9.90;2.40;;;19.10;60.20;;;;;;5052511;28;20203;-71
2023/08/07 12:25:22;;;;;;;4.07;1.60;;;19.10;60.10;;;;;;4992533;28;20198;-71
2023/08/07 12:28:38;;;;;;;10.77;1.70;;;19.10;60.20;;;;;;4993439;28;20194;-71
2023/08/07 12:31:24;;;;;;;6.13;1.92;;;19.20;60.30;;;;;;4993591;28;20218;-71
2023/08/07 12:33:51;;;;;;;6.03;1.63;;;19.10;60.10;;;;;;4993371;28;20212;-71
2023/08/07 12:36:20;;;;;;;2.90;1.40;;;19.20;59.90;;;;;;4993412;28;20221;-71
2023/08/07 12:44:43;;;;;;;5.22;1.73;;;19.20;59.80;;;;;;4969577;28;20310;-72
2023/08/07 12:47:33;;;;;;;4.78;2.03;;;19.20;59.70;;;;;;5042216;28;20223;-71
2023/08/07 12:53:10;;;;;;;3.80;1.73;;;19.20;59.50;;;;;;5043644;28;20255;-71
2023/08/07 12:56:05;;;;;;;;;;;;;;;;;;;;;
2023/08/07 12:59:02;;;;;;;3.63;1.60;;;19.30;59.60;;;;;;5060340;28;20683;-71
2023/08/07 13:04:28;;;;;;;7.43;1.58;;;19.20;59.50;;;;;;4993154;28;20202;-70
2023/08/07 13:07:02;;;;;;;3.88;1.63;;;19.30;59.60;;;;;;4878129;29;20229;-71
2023/08/07 13:09:45;;;;;;;8.60;1.70;;;19.30;59.60;;;;;;4878544;29;20266;-71
2023/08/07 13:12:12;;;;;;;6.70;1.83;;;19.30;59.60;;;;;;4878310;29;20227;-71
2023/08/07 13:14:39;;;;;;;5.45;1.73;;;19.30;59.60;;;;;;4878559;29;20203;-71
2023/08/07 13:17:08;;;;;;;3.95;1.85;;;19.30;59.60;;;;;;4877605;29;20242;-71
2023/08/07 13:23:55;;;;;;;;;;;;;;;;;;;;;
2023/08/07 13:26:23;;;;;;;7.20;1.67;;;19.30;59.60;;;;;;4875056;29;20226;-62
2023/08/07 13:28:50;;;;;;;6.93;2.00;;;19.30;59.60;;;;;;4877837;29;20190;-71
2023/08/07 13:31:17;;;;;;;4.63;2.05;;;19.30;59.60;;;;;;4930687;28;20222;-71
2023/08/07 13:36:32;;;;;;;6.70;1.90;;;19.40;59.70;;;;;;5049669;28;20215;-71
2023/08/07 13:39:01;;;;;;;7.28;1.75;;;19.40;59.80;;;;;;5075022;28;20194;-71
2023/08/07 13:41:34;;;;;;;4.95;2.13;;;19.40;59.70;;;;;;5094409;28;20218;-71
2023/08/07 13:44:02;;;;;;;7.80;2.15;;;19.40;59.70;;;;;;5108463;28;20233;-71
2023/08/07 13:46:30;;;;;;;4.50;1.70;;;19.40;59.80;;;;;;5114748;28;20228;-71
2023/08/07 13:49:11;;;;;;;6.28;1.88;;;19.40;59.90;;;;;;5114220;28;20185;-71
2023/08/07 13:51:48;;;;;;;8.80;1.70;;;19.40;59.80;;;;;;5114845;28;20224;-71
2023/08/07 13:54:16;;;;;;;8.98;1.80;;;19.40;59.80;;;;;;5062213;28;20197;-72
2023/08/07 13:56:43;;;;;;;6.15;2.10;;;19.40;59.80;;;;;;5114096;28;20266;-71
2023/08/07 13:59:11;;;;;;;10.38;2.95;;;19.40;59.90;;;;;;5113953;28;20189;-71
2023/08/07 14:01:38;;;;;;;11.20;1.95;;;19.40;61.00;;;;;;5114292;28;20217;-71
2023/08/07 14:07:09;;;;;;;;;;;;;;;;;;;;;
2023/08/07 14:09:47;;;;;;;9.20;1.70;;;19.40;60.30;;;;;;5113506;28;20693;-70
2023/08/07 14:12:14;;;;;;;8.48;2.38;;;19.40;60.30;;;;;;5061775;28;20303;-71
2023/08/07 14:14:43;;;;;;;6.88;1.73;;;19.40;60.30;;;;;;5113644;28;20189;-71
2023/08/07 14:23:44;;;;;;;7.32;2.10;;;19.40;60.50;;;;;;5070176;28;20194;-71
2023/08/07 14:26:24;;;;;;;;;;;;;;;;;;;;;
2023/08/07 14:29:28;;;;;;;;;;;;;;;;;;;;;
2023/08/07 14:31:56;;;;;;;8.02;2.00;;;19.40;59.70;;;;;;5039645;28;20218;-71
2023/08/07 14:34:26;;;;;;;9.23;2.15;;;19.40;59.70;;;;;;5070475;28;20206;-70
2023/08/07 14:36:54;;;;;;;6.38;1.80;;;19.50;59.80;;;;;;5070339;28;20219;-70
2023/08/07 14:39:22;;;;;;;6.57;1.90;;;19.50;59.80;;;;;;5070336;28;20241;-70
2023/08/07 14:44:34;;;;;;;6.65;1.90;;;19.50;59.80;;;;;;5054987;28;20236;-70
2023/08/07 14:47:59;;;;;;;;;;;;;;;;;;;;;
2023/08/07 14:50:38;;;;;;;4.30;1.60;;;19.50;59.60;;;;;;5085483;28;20201;-71
2023/08/07 14:53:35;;;;;;;5.57;2.08;;;19.40;59.70;;;;;;5061929;28;20197;-70
2023/08/07 14:56:04;;;;;;;4.32;1.60;;;19.50;59.80;;;;;;5113074;28;20329;-71
2023/08/07 15:02:08;;;;;;;5.13;2.00;;;19.50;59.80;;;;;;5069326;28;20275;-71
2023/08/07 15:04:45;;;;;;;6.38;2.00;;;19.50;59.80;;;;;;5069899;28;20203;-71
2023/08/07 15:07:15;;;;;;;6.60;1.90;;;19.50;59.80;;;;;;5070138;28;20233;-71
2023/08/07 15:12:58;;;;;;;8.27;1.92;;;19.50;59.80;;;;;;5026722;28;20223;-71
2023/08/07 15:15:25;;;;;;;5.07;2.10;;;19.50;59.90;;;;;;5047976;28;20202;-71
2023/08/07 15:17:54;;;;;;;8.38;1.92;;;19.50;59.90;;;;;;5069746;28;20361;-70
2023/08/07 15:23:16;;;;;;;8.40;2.10;;;19.60;60.10;;;;;;5065654;28;20203;-71
2023/08/07 15:31:49;;;;;;;11.75;2.53;;;19.60;59.80;;;;;;5040567;28;20217;-70
2023/08/07 15:34:17;;;;;;;8.27;2.60;;;19.60;59.90;;;;;;5069731;28;20199;-70
2023/08/07 15:36:44;;;;;;;5.68;2.35;;;19.50;59.80;;;;;;5070230;28;20495;-71
2023/08/07 15:39:12;;;;;;;12.45;2.10;;;19.50;59.80;;;;;;5102816;28;20229;-71
2023/08/07 15:41:40;;;;;;;9.10;2.40;;;19.60;59.90;;;;;;5115309;28;20217;-70
2023/08/07 15:44:23;;;;;;;5.63;2.22;;;19.60;59.90;;;;;;5116535;28;20728;-70
2023/08/07 15:46:50;;;;;;;12.60;2.60;;;19.60;59.90;;;;;;5117013;28;20213;-70
2023/08/07 15:49:28;;;;;;;7.53;2.10;;;19.60;59.80;;;;;;5117517;28;20189;-70
2023/08/07 15:51:55;;;;;;;9.15;2.53;;;19.60;59.80;;;;;;5116921;28;20220;-70
2023/08/07 15:54:24;;;;;;;7.00;2.22;;;19.60;59.80;;;;;;5116719;28;20189;-70
2023/08/07 15:56:51;;;;;;;7.32;1.95;;;19.60;59.80;;;;;;5116788;28;20216;-70
2023/08/07 15:59:30;;;;;;;;;;;;;;;;;;;;;
2023/08/07 16:04:40;;;;;;;5.97;1.92;;;19.60;59.80;;;;;;5115169;28;20659;-69
2023/08/07 16:07:07;;;;;;;5.70;1.90;;;19.60;59.80;;;;;;5116590;28;20213;-70
2023/08/07 16:09:35;;;;;;;5.80;1.92;;;19.60;59.90;;;;;;5116173;28;20190;-62
2023/08/07 16:15:09;;;;;;;5.50;2.38;;;19.60;59.90;;;;;;5116043;28;20197;-70
2023/08/07 16:17:59;;;;;;;;;;;;;;;;;;;;;
2023/08/07 16:23:55;;;;;;;9.13;2.08;;;19.60;59.90;;;;;;5072824;28;20245;-70
2023/08/07 16:27:15;;;;;;;8.52;2.20;;;19.60;59.90;;;;;;5111358;28;20747;-69
2023/08/07 16:29:43;;;;;;;8.60;2.05;;;19.60;59.90;;;;;;5072810;28;20194;-70
2023/08/07 16:34:51;;;;;;;7.38;2.13;;;19.60;59.90;;;;;;5069493;28;20203;-70
2023/08/07 16:37:19;;;;;;;5.90;2.05;;;19.70;59.90;;;;;;5072776;28;20223;-70
2023/08/07 16:39:48;;;;;;;6.30;2.20;;;19.70;60.00;;;;;;5072781;28;20209;-70
2023/08/07 16:42:25;;;;;;;;;;;;;;;;;;;;;
2023/08/07 16:45:16;;;;;;;7.38;2.15;;;19.70;60.00;;;;;;5022017;28;20216;-70
2023/08/07 16:47:49;;;;;;;5.03;2.08;;;19.70;59.90;;;;;;5072641;28;20229;-70
2023/08/07 16:50:17;;;;;;;9.48;2.33;;;19.70;60.00;;;;;;5072450;28;20703;-70
2023/08/07 16:52:54;;;;;;;3.63;2.22;;;19.70;60.00;;;;;;5071769;28;20214;-70
2023/08/07 16:55:24;;;;;;;6.43;2.10;;;19.80;60.10;;;;;;5039698;28;20286;-70
2023/08/07 17:00:45;;;;;;;9.70;2.15;;;19.80;60.10;;;;;;4968621;28;20193;-59
2023/08/07 17:03:14;;;;;;;9.70;2.20;;;19.80;60.00;;;;;;5115539;28;20202;-70
2023/08/07 17:05:41;;;;;;;5.80;1.90;;;19.80;60.10;;;;;;5115139;28;20200;-70
2023/08/07 17:08:08;;;;;;;5.03;2.33;;;19.80;60.20;;;;;;5115208;28;20209;-70
2023/08/07 17:10:38;;;;;;;7.13;2.28;;;19.70;60.10;;;;;;5114981;28;20206;-70
2023/08/07 17:13:06;;;;;;;10.57;2.47;;;19.70;60.60;;;;;;5115537;28;20221;-70
2023/08/07 17:19:16;;;;;;;9.77;2.47;;;19.70;60.90;;;;;;5098530;28;20239;-70
2023/08/07 17:24:47;;;;;;;7.10;2.50;;;19.70;61.30;;;;;;5115121;28;20217;-70
2023/08/07 17:27:16;;;;;;;18.35;2.95;;;19.70;61.50;;;;;;5112504;28;20221;-70
2023/08/07 17:29:45;;;;;;;8.07;2.22;;;19.70;61.60;;;;;;5114856;28;20197;-70
2023/08/07 17:45:02;;;;;;;11.20;2.40;;;19.60;61.30;;;;;;5045402;28;20231;-70
2023/08/07 17:47:29;;;;;;;8.48;2.00;;;19.60;61.00;;;;;;5112548;28;20223;-70
2023/08/07 17:49:59;;;;;;;7.05;2.63;;;19.50;61.00;;;;;;5114318;28;20193;-70
2023/08/07 17:52:29;;;;;;;9.40;2.22;;;19.50;60.90;;;;;;5114719;28;20217;-70
2023/08/07 18:01:02;;;;;;;11.52;2.50;;;19.50;61.20;;;;;;5082292;28;20658;-70
2023/08/07 18:03:32;;;;;;;10.38;2.25;;;19.40;61.20;;;;;;5114072;28;20232;-70
2023/08/07 18:06:00;;;;;;;5.30;2.58;;;19.40;61.40;;;;;;5114093;28;20264;-70
2023/08/07 18:11:42;;;;;;;7.10;2.17;;;19.40;61.60;;;;;;5031012;28;20223;-69
2023/08/07 18:14:09;;;;;;;6.78;2.15;;;19.40;61.60;;;;;;5079191;28;20197;-61
2023/08/07 18:23:50;;;;;;;11.43;2.63;;;19.40;61.70;;;;;;5050827;28;20222;-70
2023/08/07 18:30:11;;;;;;;7.22;2.15;;;19.40;61.80;;;;;;5030818;28;20758;-70
2023/08/07 18:36:42;;;;;;;7.55;2.50;;;19.40;61.80;;;;;;5044147;28;20277;-70
2023/08/07 18:39:33;;;;;;;7.70;2.20;;;19.40;61.90;;;;;;5113285;28;20306;-70
2023/08/07 18:42:10;;;;;;;11.75;2.58;;;19.40;61.90;;;;;;5061987;28;20213;-70
2023/08/07 18:48:17;;;;;;;5.28;1.90;;;19.40;61.80;;;;;;5078466;28;20305;-69
2023/08/07 18:53:40;;;;;;;5.90;2.28;;;19.30;61.50;;;;;;5080180;28;20208;-70
2023/08/07 18:59:27;;;;;;;6.60;1.95;;;19.30;61.50;;;;;;5104681;28;20331;-70
2023/08/07 19:02:18;;;;;;;;;;;;;;;;;;;;;
2023/08/07 19:05:19;;;;;;;11.65;2.17;;;19.30;61.40;;;;;;5076089;28;20212;-68
2023/08/07 19:07:47;;;;;;;9.18;2.20;;;19.40;61.60;;;;;;5113432;28;20299;-70
2023/08/07 19:25:41;;;;;;;5.53;2.45;;;19.40;61.80;;;;;;4960133;28;20286;-73
2023/08/07 19:31:02;;;;;;;6.53;2.25;;;19.30;61.60;;;;;;5045622;28;20200;-71
2023/08/07 19:33:40;;;;;;;;;;;;;;;;;;;;;
2023/08/07 19:43:46;;;;;;;8.00;2.67;;;19.30;61.90;;;;;;5029760;28;20755;-71
2023/08/07 19:46:15;;;;;;;7.00;2.65;;;19.30;62.00;;;;;;5029575;28;20736;-71
2023/08/07 19:49:01;;;;;;;;;;;;;;;;;;;;;
2023/08/07 19:54:33;;;;;;;10.13;2.42;;;19.30;62.20;;;;;;5020449;28;20240;-71
2023/08/07 20:03:20;;;;;;;7.50;2.47;;;19.30;62.20;;;;;;4906267;29;20279;-71
2023/08/07 20:06:18;;;;;;;8.95;2.60;;;19.30;62.20;;;;;;5003088;28;20200;-70
2023/08/07 20:08:45;;;;;;;8.05;2.20;;;19.30;62.10;;;;;;5014497;28;20232;-71
2023/08/07 20:11:13;;;;;;;11.18;2.53;;;19.30;62.20;;;;;;5029377;28;20207;-71
2023/08/07 20:14:10;;;;;;;5.78;2.08;;;19.30;62.30;;;;;;5074727;28;20197;-71
2023/08/07 20:19:25;;;;;;;6.25;1.92;;;19.30;62.40;;;;;;5102953;28;20307;-71
2023/08/07 20:22:45;;;;;;;5.53;1.70;;;19.30;62.40;;;;;;5112416;28;20221;-71
2023/08/07 20:25:35;;;;;;;11.02;2.88;;;19.30;62.50;;;;;;5112004;28;20272;-71
2023/08/07 20:28:03;;;;;;;11.13;2.33;;;19.30;62.40;;;;;;5113857;28;20220;-71
2023/08/07 20:33:24;;;;;;;9.02;2.30;;;19.30;62.40;;;;;;5067153;28;20253;-71
2023/08/07 20:35:52;;;;;;;5.30;2.30;;;19.40;62.50;;;;;;5116071;28;20217;-71
2023/08/07 20:38:19;;;;;;;6.65;2.20;;;19.30;62.50;;;;;;5115886;28;20221;-71
2023/08/07 20:44:10;;;;;;;7.00;1.98;;;19.30;62.50;;;;;;5114526;28;20203;-70
2023/08/07 20:49:29;;;;;;;6.93;1.90;;;19.30;62.50;;;;;;5114178;28;20208;-70
2023/08/07 20:52:00;;;;;;;6.38;2.35;;;19.30;62.50;;;;;;5115830;28;20217;-71
2023/08/07 20:54:43;;;;;;;6.60;2.03;;;19.30;62.50;;;;;;5115747;28;20185;-61
2023/08/07 20:57:22;;;;;;;6.75;2.00;;;19.30;62.50;;;;;;5115440;28;20293;-70
2023/08/07 20:59:49;;;;;;;6.22;1.98;;;19.30;62.50;;;;;;5079868;28;20236;-71